Terminal Aerodrome Forecast
Issued by NWS Central Illinois

Home | Current Version | Previous Version | Text Only | Print | Product List | Glossary On
Versions: 1 2 3 4 5 6 7 8 9 10 11 12 13 14 15 16 17 18 19
000
FTUS43 KILX 302008 AAA
TAFSPI
TAF AMD
KSPI 302008Z 3020/0118 36009KT 2SM BR VCSH SCT009 BKN015
     FM302200 36009KT 4SM BR VCSH BKN025
     FM010700 34005KT 3SM -DZ BR SCT003 OVC008
      TEMPO 0111/0114 BKN003
     FM011500 32005KT P6SM OVC012=

USA.gov is the U.S. government's official web portal to all federal, state and local government web resources and services.